Terminal Aerodrome Forecast
Issued by NWS Paducah, KY

Home | Current Version | Previous Version | Graphics & Text | Print | Product List | Glossary On
Versions: 1 2 3 4 5 6 7 8 9 10 11 12 13 14 15 16 17 18 19 20 21 22 23
000
FTUS43 KPAH 281002 AAA
TAFEVV
TAF AMD
KEVV 281002Z 2810/2906 23004KT 3SM BR SCT005 BKN012
      TEMPO 2810/2813 1/2SM FG BKN005
     FM281400 26011KT P6SM SCT100
     FM290000 VRB03KT P6SM SKC=

USA.gov is the U.S. government's official web portal to all federal, state and local government web resources and services.